Time;durP1;ratioP1;P1;durP2;ratioP2;P2;SDS_P1;SDS_P2;PMS_P1;PMS_P2;Temp;Humidity;BMP_temperature;BMP_pressure;BME280_temperature;BME280_humidity;BME280_pressure;Samples;Min_cycle;Max_cycle;Signal;HPM_P1;HPM_P2
2022/04/21 00:00:52;;;;;;;4.78;2.67;;;;;;;;;;5009441;28;20445;-69
2022/04/21 00:03:17;;;;;;;11.70;3.00;;;;;;;;;;5005872;28;20029;-69
2022/04/21 00:05:43;;;;;;;5.28;2.20;;;;;;;;;;5016488;28;20287;-69
2022/04/21 00:08:08;;;;;;;5.28;2.63;;;;;;;;;;4992505;28;20088;-69
2022/04/21 00:10:33;;;;;;;9.32;2.58;;;;;;;;;;5008264;28;20018;-69
2022/04/21 00:12:58;;;;;;;8.53;2.50;;;;;;;;;;5005611;28;20057;-69
2022/04/21 00:15:24;;;;;;;7.13;3.03;;;;;;;;;;5016125;28;20272;-69
2022/04/21 00:17:49;;;;;;;11.27;3.17;;;;;;;;;;5008934;28;20065;-69
2022/04/21 00:20:15;;;;;;;6.95;2.83;;;;;;;;;;5008815;28;20026;-69
2022/04/21 00:25:26;;;;;;;5.10;2.88;;;;;;;;;;5015033;28;20025;-69
2022/04/21 00:27:52;;;;;;;4.07;2.25;;;;;;;;;;5005527;28;20144;-69
2022/04/21 00:30:17;;;;;;;6.20;2.47;;;;;;;;;;5006998;28;20108;-69
2022/04/21 00:32:43;;;;;;;17.13;2.95;;;;;;;;;;5007377;28;20396;-69
2022/04/21 00:35:11;;;;;;;5.75;2.60;;;;;;;;;;5009214;28;20049;-69
2022/04/21 00:37:49;;;;;;;7.53;3.67;;;;;;;;;;5009295;28;20087;-69
2022/04/21 00:40:16;;;;;;;8.63;3.85;;;;;;;;;;5009899;28;20033;-69
2022/04/21 00:42:41;;;;;;;4.13;2.22;;;;;;;;;;5006798;28;20014;-69
2022/04/21 00:45:07;;;;;;;6.57;2.88;;;;;;;;;;5017208;28;20075;-69
2022/04/21 00:47:33;;;;;;;5.78;2.85;;;;;;;;;;5009757;28;20036;-69
2022/04/21 00:49:58;;;;;;;6.70;3.25;;;;;;;;;;5006229;28;20643;-69
2022/04/21 00:52:24;;;;;;;7.63;2.80;;;;;;;;;;5010567;28;20532;-69
2022/04/21 00:54:49;;;;;;;6.00;2.60;;;;;;;;;;5008233;28;21084;-69
2022/04/21 00:57:15;;;;;;;5.90;2.67;;;;;;;;;;5018300;28;20061;-69
2022/04/21 00:59:42;;;;;;;5.38;2.80;;;;;;;;;;5006662;28;20273;-69
2022/04/21 01:04:52;;;;;;;5.03;2.90;;;;;;;;;;5008121;28;20535;-69
2022/04/21 01:07:17;;;;;;;6.72;2.90;;;;;;;;;;5008493;28;20022;-69
2022/04/21 01:09:42;;;;;;;12.93;2.90;;;;;;;;;;5004961;28;20036;-69
2022/04/21 01:12:09;;;;;;;5.47;2.92;;;;;;;;;;5007617;28;20312;-69
2022/04/21 01:14:34;;;;;;;4.10;2.47;;;;;;;;;;5007334;28;20542;-69
2022/04/21 01:17:00;;;;;;;5.10;2.55;;;;;;;;;;5009420;28;20024;-69
2022/04/21 01:19:26;;;;;;;6.47;2.63;;;;;;;;;;5006071;28;20029;-69
2022/04/21 01:21:51;;;;;;;5.97;2.70;;;;;;;;;;5005898;28;20024;-69
2022/04/21 01:24:16;;;;;;;8.13;2.93;;;;;;;;;;5007805;28;20080;-69
2022/04/21 01:26:42;;;;;;;8.80;2.70;;;;;;;;;;5008692;28;20272;-69
2022/04/21 01:29:07;;;;;;;9.98;2.28;;;;;;;;;;5012596;28;20264;-69
2022/04/21 01:31:32;;;;;;;6.35;3.05;;;;;;;;;;5007194;28;20059;-69
2022/04/21 01:33:58;;;;;;;3.23;2.20;;;;;;;;;;4992822;28;20494;-69
2022/04/21 01:36:23;;;;;;;7.13;2.25;;;;;;;;;;5015312;28;20329;-69
2022/04/21 01:41:32;;;;;;;9.40;2.80;;;;;;;;;;5009359;28;20037;-69
2022/04/21 01:43:57;;;;;;;6.85;2.65;;;;;;;;;;5009962;28;20029;-69
2022/04/21 01:46:22;;;;;;;5.43;3.08;;;;;;;;;;5007861;28;20430;-69
2022/04/21 01:48:47;;;;;;;11.00;2.70;;;;;;;;;;5005903;28;20011;-69
2022/04/21 01:51:13;;;;;;;5.72;3.03;;;;;;;;;;5005311;28;20092;-69
2022/04/21 01:53:38;;;;;;;4.80;2.70;;;;;;;;;;5010013;28;20026;-69
2022/04/21 01:56:03;;;;;;;5.88;2.95;;;;;;;;;;5013238;28;20308;-69
2022/04/21 01:58:29;;;;;;;6.60;2.72;;;;;;;;;;5006956;28;20033;-69
2022/04/21 02:00:54;;;;;;;4.10;2.33;;;;;;;;;;5008634;28;20029;-69
2022/04/21 02:03:19;;;;;;;10.27;3.20;;;;;;;;;;5009076;28;20026;-69
2022/04/21 02:05:44;;;;;;;6.33;2.57;;;;;;;;;;5008137;28;20241;-69
2022/04/21 02:08:10;;;;;;;8.13;3.00;;;;;;;;;;5005639;28;20347;-69
2022/04/21 02:10:35;;;;;;;5.97;2.50;;;;;;;;;;5007790;28;20067;-69
2022/04/21 02:13:00;;;;;;;7.50;3.15;;;;;;;;;;5015723;28;20282;-69
2022/04/21 02:15:26;;;;;;;10.63;2.80;;;;;;;;;;5002787;28;20105;-69
2022/04/21 02:17:51;;;;;;;4.47;2.90;;;;;;;;;;5013111;28;20105;-69
2022/04/21 02:20:17;;;;;;;7.67;3.37;;;;;;;;;;5008905;28;20028;-69
2022/04/21 02:22:45;;;;;;;5.10;2.60;;;;;;;;;;5007849;28;20780;-69
2022/04/21 02:25:11;;;;;;;13.38;3.30;;;;;;;;;;4991900;28;20066;-69
2022/04/21 02:27:37;;;;;;;6.65;2.40;;;;;;;;;;5003723;28;20676;-69
2022/04/21 02:30:06;;;;;;;12.75;3.30;;;;;;;;;;5008914;28;20100;-69
2022/04/21 02:32:31;;;;;;;5.03;2.90;;;;;;;;;;5022368;28;20025;-69
2022/04/21 02:34:57;;;;;;;6.13;2.80;;;;;;;;;;5012808;28;20033;-69
2022/04/21 02:37:22;;;;;;;5.18;3.15;;;;;;;;;;5008911;28;20277;-69
2022/04/21 02:39:48;;;;;;;5.93;2.90;;;;;;;;;;5008783;28;20030;-69
2022/04/21 02:42:14;;;;;;;6.45;3.60;;;;;;;;;;5014475;28;20030;-69
2022/04/21 02:44:39;;;;;;;6.22;3.40;;;;;;;;;;5008959;28;20493;-69
2022/04/21 02:47:05;;;;;;;4.23;2.73;;;;;;;;;;5011598;28;20033;-69
2022/04/21 02:49:30;;;;;;;10.60;3.20;;;;;;;;;;5008865;28;20280;-69
2022/04/21 02:51:56;;;;;;;8.02;2.88;;;;;;;;;;5014644;28;20030;-69
2022/04/21 02:57:20;;;;;;;10.35;2.78;;;;;;;;;;5009186;28;20092;-69
2022/04/21 02:59:46;;;;;;;5.90;3.50;;;;;;;;;;5007610;28;20625;-69
2022/04/21 03:02:11;;;;;;;8.50;3.65;;;;;;;;;;5016521;28;20042;-69
2022/04/21 03:04:36;;;;;;;6.75;3.47;;;;;;;;;;5009046;28;20014;-69
2022/04/21 03:07:02;;;;;;;10.68;3.67;;;;;;;;;;5010637;28;20029;-69
2022/04/21 03:09:27;;;;;;;10.90;3.67;;;;;;;;;;5011530;28;20084;-69
2022/04/21 03:11:52;;;;;;;6.10;3.17;;;;;;;;;;5021461;28;20027;-69
2022/04/21 03:14:19;;;;;;;4.25;3.08;;;;;;;;;;5011489;28;20018;-69
2022/04/21 03:16:44;;;;;;;7.90;3.22;;;;;;;;;;5007305;28;20088;-69
2022/04/21 03:19:09;;;;;;;8.63;3.90;;;;;;;;;;5008861;28;20542;-69
2022/04/21 03:24:21;;;;;;;6.53;3.15;;;;;;;;;;5008435;28;20271;-69
2022/04/21 03:26:47;;;;;;;8.82;3.33;;;;;;;;;;4990752;28;20025;-69
2022/04/21 03:29:12;;;;;;;7.22;4.00;;;;;;;;;;5007552;28;20025;-69
2022/04/21 03:31:37;;;;;;;6.43;3.47;;;;;;;;;;5011455;28;20093;-69
2022/04/21 03:34:04;;;;;;;5.70;3.50;;;;;;;;;;5013109;28;20040;-69
2022/04/21 03:36:31;;;;;;;6.25;3.25;;;;;;;;;;5007552;28;20300;-69
2022/04/21 03:38:56;;;;;;;6.15;3.72;;;;;;;;;;5007540;28;20022;-69
2022/04/21 03:41:21;;;;;;;10.57;3.67;;;;;;;;;;5009354;28;20029;-69
2022/04/21 03:43:46;;;;;;;9.00;3.93;;;;;;;;;;5009677;28;20284;-69
2022/04/21 03:46:12;;;;;;;8.63;3.45;;;;;;;;;;4997482;28;20315;-69
2022/04/21 03:48:37;;;;;;;5.43;3.60;;;;;;;;;;5008356;28;20034;-69
2022/04/21 03:51:02;;;;;;;6.47;3.07;;;;;;;;;;4992948;28;20029;-69
2022/04/21 03:53:28;;;;;;;8.30;3.65;;;;;;;;;;5009497;28;20264;-69
2022/04/21 03:55:53;;;;;;;17.30;4.20;;;;;;;;;;4991091;28;20492;-69
2022/04/21 03:58:18;;;;;;;5.97;3.58;;;;;;;;;;5008313;28;20322;-69
2022/04/21 04:00:43;;;;;;;6.50;3.50;;;;;;;;;;5009429;28;20442;-69
2022/04/21 04:03:09;;;;;;;8.23;3.40;;;;;;;;;;4993697;28;20026;-69
2022/04/21 04:05:34;;;;;;;6.67;3.60;;;;;;;;;;5007480;28;20018;-69
2022/04/21 04:10:52;;;;;;;5.80;3.60;;;;;;;;;;5008769;28;20113;-69
2022/04/21 04:13:26;;;;;;;6.78;3.45;;;;;;;;;;4994578;28;20031;-69
2022/04/21 04:15:52;;;;;;;6.05;3.42;;;;;;;;;;5006954;28;20018;-69
2022/04/21 04:18:18;;;;;;;6.45;3.63;;;;;;;;;;5009278;28;20018;-69
2022/04/21 04:20:44;;;;;;;7.55;3.55;;;;;;;;;;5008579;28;20080;-69
2022/04/21 04:23:09;;;;;;;8.82;3.25;;;;;;;;;;5006855;28;20386;-69
2022/04/21 04:25:37;;;;;;;9.07;3.53;;;;;;;;;;5012894;28;20030;-69
2022/04/21 04:28:04;;;;;;;7.82;3.28;;;;;;;;;;5007455;28;20060;-69
2022/04/21 04:30:29;;;;;;;11.10;4.20;;;;;;;;;;4991884;28;20021;-69
2022/04/21 04:32:54;;;;;;;6.88;4.60;;;;;;;;;;5011777;28;20022;-69
2022/04/21 04:35:21;;;;;;;6.45;3.63;;;;;;;;;;5006349;28;20030;-69
2022/04/21 04:37:49;;;;;;;8.25;3.95;;;;;;;;;;5033123;23;20120;-92
2022/04/21 04:40:44;;;;;;;7.43;4.07;;;;;;;;;;5016359;28;20024;-92
2022/04/21 04:43:15;;;;;;;13.27;4.85;;;;;;;;;;5017297;28;20108;-92
2022/04/21 04:48:38;;;;;;;15.57;4.70;;;;;;;;;;5033219;28;20443;-92
2022/04/21 04:54:46;;;;;;;12.57;5.38;;;;;;;;;;5068683;22;20045;-89
2022/04/21 04:57:29;;;;;;;;;;;;;;;;;;;;;
2022/04/21 05:00:13;;;;;;;11.80;4.30;;;;;;;;;;5008073;28;20026;-86
2022/04/21 05:03:17;;;;;;;;;;;;;;;;;;;;;
2022/04/21 05:06:05;;;;;;;6.80;4.60;;;;;;;;;;5006101;28;20021;-87
2022/04/21 05:11:52;;;;;;;8.60;4.35;;;;;;;;;;4988618;28;20057;-87
2022/04/21 05:14:18;;;;;;;7.80;4.47;;;;;;;;;;4991162;28;20018;-87
2022/04/21 05:16:44;;;;;;;7.18;4.50;;;;;;;;;;5006216;28;20654;-88
2022/04/21 05:19:16;;;;;;;11.15;4.63;;;;;;;;;;4995048;28;20404;-87
2022/04/21 05:21:42;;;;;;;20.25;5.43;;;;;;;;;;4991866;28;20034;-88
2022/04/21 05:24:08;;;;;;;11.45;4.72;;;;;;;;;;4988260;28;20618;-87
2022/04/21 05:26:34;;;;;;;10.73;4.22;;;;;;;;;;4999561;28;20093;-88
2022/04/21 05:29:00;;;;;;;9.20;4.13;;;;;;;;;;5011292;28;20443;-87
2022/04/21 05:31:30;;;;;;;9.30;4.88;;;;;;;;;;4998363;28;20037;-88
2022/04/21 05:34:13;;;;;;;8.18;5.15;;;;;;;;;;5014281;28;20017;-88
2022/04/21 05:36:44;;;;;;;8.20;4.63;;;;;;;;;;4994739;28;21964;-87
2022/04/21 05:39:12;;;;;;;10.13;4.85;;;;;;;;;;4994751;28;20036;-88
2022/04/21 05:41:43;;;;;;;8.50;4.50;;;;;;;;;;4997896;28;20026;-88
2022/04/21 05:44:15;;;;;;;8.30;4.38;;;;;;;;;;4998475;28;20034;-88
2022/04/21 05:46:40;;;;;;;8.43;4.35;;;;;;;;;;5011932;28;20021;-87
2022/04/21 05:49:36;;;;;;;7.75;4.00;;;;;;;;;;5019583;28;22094;-87
2022/04/21 05:52:10;;;;;;;9.88;4.55;;;;;;;;;;5010446;28;20036;-88
2022/04/21 05:54:57;;;;;;;9.27;3.95;;;;;;;;;;5012955;28;20029;-87
2022/04/21 05:57:29;;;;;;;11.60;4.00;;;;;;;;;;5026019;28;20032;-87
2022/04/21 05:59:54;;;;;;;11.90;4.32;;;;;;;;;;5008421;28;20053;-87
2022/04/21 06:02:28;;;;;;;12.32;4.40;;;;;;;;;;5007851;28;20041;-88
2022/04/21 06:08:11;;;;;;;7.13;3.67;;;;;;;;;;5011929;28;20143;-88
2022/04/21 06:10:42;;;;;;;7.70;3.60;;;;;;;;;;4998018;28;20018;-87
2022/04/21 06:13:08;;;;;;;7.95;4.03;;;;;;;;;;5009159;28;20040;-88
2022/04/21 06:15:33;;;;;;;11.98;4.50;;;;;;;;;;4997594;28;20477;-88
2022/04/21 06:18:08;;;;;;;9.52;5.18;;;;;;;;;;4996151;28;20037;-88
2022/04/21 06:21:03;;;;;;;8.43;3.72;;;;;;;;;;5021231;28;20024;-88
2022/04/21 06:23:30;;;;;;;11.05;3.95;;;;;;;;;;5005658;28;20032;-88
2022/04/21 06:25:58;;;;;;;9.50;3.40;;;;;;;;;;4991825;28;20378;-88
2022/04/21 06:28:43;;;;;;;10.70;3.63;;;;;;;;;;4994690;28;20083;-88
2022/04/21 06:31:12;;;;;;;13.40;4.03;;;;;;;;;;4993746;28;20421;-88
2022/04/21 06:34:06;;;;;;;14.98;4.07;;;;;;;;;;5008793;28;20022;-89
2022/04/21 06:36:35;;;;;;;8.63;3.80;;;;;;;;;;4988093;28;20038;-89
2022/04/21 06:39:34;;;;;;;8.85;3.50;;;;;;;;;;4968988;28;20035;-89
2022/04/21 06:42:47;;;;;;;12.35;3.78;;;;;;;;;;4916502;28;20180;-88
2022/04/21 06:50:41;;;;;;;7.70;3.20;;;;;;;;;;5015887;28;20093;-89
2022/04/21 06:53:25;;;;;;;8.52;3.58;;;;;;;;;;4990644;28;20053;-87
2022/04/21 06:59:31;;;;;;;;;;;;;;;;;;;;;
2022/04/21 07:02:10;;;;;;;8.45;2.95;;;;;;;;;;5020547;28;20040;-88
2022/04/21 07:05:14;;;;;;;12.85;4.07;;;;;;;;;;4993315;28;20034;-88
2022/04/21 07:10:52;;;;;;;9.07;3.17;;;;;;;;;;4998957;28;20074;-88
2022/04/21 07:13:21;;;;;;;4.75;2.58;;;;;;;;;;4992422;28;20021;-87
2022/04/21 07:16:05;;;;;;;;;;;;;;;;;;;;;
2022/04/21 07:18:40;;;;;;;3.65;2.40;;;;;;;;;;5014708;28;20022;-89
2022/04/21 07:24:14;;;;;;;4.05;2.22;;;;;;;;;;5005866;28;20096;-90
2022/04/21 07:26:53;;;;;;;4.95;2.45;;;;;;;;;;5009268;28;20022;-89
2022/04/21 07:29:46;;;;;;;7.15;2.50;;;;;;;;;;4992593;28;20072;-88
2022/04/21 07:32:27;;;;;;;6.00;2.70;;;;;;;;;;5000152;28;20072;-89
2022/04/21 07:35:05;;;;;;;;;;;;;;;;;;;;;
2022/04/21 07:37:52;;;;;;;;;;;;;;;;;;;;;
2022/04/21 07:43:56;;;;;;;;;;;;;;;;;;;;;
2022/04/21 07:46:22;;;;;;;5.63;2.60;;;;;;;;;;5003880;28;20022;-86
2022/04/21 07:51:31;;;;;;;5.72;2.10;;;;;;;;;;5014878;28;20029;-88
2022/04/21 07:53:57;;;;;;;3.55;1.95;;;;;;;;;;5000761;28;20084;-89
2022/04/21 07:56:22;;;;;;;5.50;2.40;;;;;;;;;;4991323;28;20071;-87
2022/04/21 07:58:47;;;;;;;5.25;2.10;;;;;;;;;;5021601;28;20758;-86
2022/04/21 08:01:13;;;;;;;4.67;1.90;;;;;;;;;;5020446;28;20105;-86
2022/04/21 08:03:39;;;;;;;5.90;1.92;;;;;;;;;;5001528;28;20040;-87
2022/04/21 08:06:04;;;;;;;5.28;2.00;;;;;;;;;;5009016;28;20021;-87
2022/04/21 08:08:30;;;;;;;3.70;2.22;;;;;;;;;;4989342;28;20582;-88
2022/04/21 08:10:55;;;;;;;2.88;1.90;;;;;;;;;;4996862;28;20109;-86
2022/04/21 08:13:20;;;;;;;3.83;2.03;;;;;;;;;;5009644;28;20030;-88
2022/04/21 08:15:46;;;;;;;6.43;1.75;;;;;;;;;;4995829;28;20531;-86
2022/04/21 08:18:11;;;;;;;8.00;1.92;;;;;;;;;;5007064;28;20136;-86
2022/04/21 08:20:37;;;;;;;8.33;1.90;;;;;;;;;;4989492;28;20118;-86
2022/04/21 08:23:02;;;;;;;7.73;2.17;;;;;;;;;;5010790;28;20473;-87
2022/04/21 08:33:39;;;;;;;5.75;1.58;;;;;;;;;;5032246;28;20025;-87
2022/04/21 08:36:05;;;;;;;3.57;1.33;;;;;;;;;;5028100;28;20104;-86
2022/04/21 08:38:31;;;;;;;12.60;1.60;;;;;;;;;;4996329;28;20542;-86
2022/04/21 08:40:58;;;;;;;3.42;1.63;;;;;;;;;;5011112;28;20022;-88
2022/04/21 08:43:24;;;;;;;3.72;1.52;;;;;;;;;;4990042;28;20029;-86
2022/04/21 08:45:50;;;;;;;3.85;0.88;;;;;;;;;;5014142;28;20026;-87
2022/04/21 08:48:17;;;;;;;7.55;1.95;;;;;;;;;;5007500;28;20037;-89
2022/04/21 08:50:43;;;;;;;1.35;0.90;;;;;;;;;;4989933;28;20509;-88
2022/04/21 08:53:09;;;;;;;2.55;0.90;;;;;;;;;;4993255;28;20065;-86
2022/04/21 08:55:34;;;;;;;1.98;0.80;;;;;;;;;;4992020;28;20029;-88
2022/04/21 08:58:00;;;;;;;5.78;1.00;;;;;;;;;;5003199;28;20398;-88
2022/04/21 09:00:25;;;;;;;9.02;0.82;;;;;;;;;;4992436;28;20528;-87
2022/04/21 09:02:51;;;;;;;2.17;0.90;;;;;;;;;;4991477;28;20032;-86
2022/04/21 09:05:16;;;;;;;2.47;0.65;;;;;;;;;;4990364;28;20080;-86
2022/04/21 09:07:45;;;;;;;3.63;0.80;;;;;;;;;;5009717;28;20018;-86
2022/04/21 09:10:13;;;;;;;2.97;0.70;;;;;;;;;;5006988;28;20783;-86
2022/04/21 09:12:42;;;;;;;0.98;0.85;;;;;;;;;;5012392;28;20026;-87
2022/04/21 09:15:12;;;;;;;3.20;0.80;;;;;;;;;;4999712;28;20466;-87
2022/04/21 09:17:45;;;;;;;4.53;0.85;;;;;;;;;;5015646;28;20029;-87
2022/04/21 09:20:11;;;;;;;3.30;1.02;;;;;;;;;;5002794;28;20071;-85
2022/04/21 09:22:39;;;;;;;5.03;1.10;;;;;;;;;;4997847;28;20029;-88
2022/04/21 09:25:05;;;;;;;6.50;1.00;;;;;;;;;;4996639;28;20018;-85
2022/04/21 09:27:40;;;;;;;3.90;1.33;;;;;;;;;;4995394;28;20026;-88
2022/04/21 09:30:09;;;;;;;4.53;1.13;;;;;;;;;;5009664;28;20420;-87
2022/04/21 09:32:35;;;;;;;1.30;0.90;;;;;;;;;;4996374;28;20248;-89
2022/04/21 09:35:00;;;;;;;1.52;0.85;;;;;;;;;;4995717;28;20097;-85
2022/04/21 09:37:25;;;;;;;3.95;1.27;;;;;;;;;;5014268;28;20038;-86
2022/04/21 09:39:51;;;;;;;2.20;0.90;;;;;;;;;;4997337;28;20068;-87
2022/04/21 09:42:24;;;;;;;5.82;1.00;;;;;;;;;;4998093;28;20273;-87
2022/04/21 09:47:33;;;;;;;2.50;0.85;;;;;;;;;;5024843;28;20076;-86
2022/04/21 09:50:09;;;;;;;2.10;0.90;;;;;;;;;;5029254;28;20101;-87
2022/04/21 09:52:35;;;;;;;2.38;1.00;;;;;;;;;;4999178;28;20368;-86
2022/04/21 09:55:18;;;;;;;1.95;1.10;;;;;;;;;;4998966;28;20030;-86
2022/04/21 09:57:44;;;;;;;4.38;1.05;;;;;;;;;;5015698;28;20513;-86
2022/04/21 10:00:09;;;;;;;7.17;1.00;;;;;;;;;;4998047;28;20041;-88
2022/04/21 10:02:35;;;;;;;3.42;1.40;;;;;;;;;;5001475;28;20315;-87
2022/04/21 10:05:00;;;;;;;2.08;1.00;;;;;;;;;;5006938;28;20020;-87
2022/04/21 10:07:26;;;;;;;3.03;1.42;;;;;;;;;;5017765;28;20026;-86
2022/04/21 10:09:51;;;;;;;3.78;1.50;;;;;;;;;;5007358;28;20033;-87
2022/04/21 10:12:17;;;;;;;4.63;1.47;;;;;;;;;;5022074;28;20100;-85
2022/04/21 10:14:44;;;;;;;4.18;1.40;;;;;;;;;;5022540;28;20348;-85
2022/04/21 10:17:10;;;;;;;3.50;1.48;;;;;;;;;;5011842;28;20026;-85
2022/04/21 10:19:35;;;;;;;3.28;1.40;;;;;;;;;;5005113;28;20079;-87
2022/04/21 10:22:03;;;;;;;4.13;1.48;;;;;;;;;;5004226;28;20481;-87
2022/04/21 10:24:29;;;;;;;3.35;1.85;;;;;;;;;;5005560;28;21729;-84
2022/04/21 10:26:55;;;;;;;7.55;1.85;;;;;;;;;;5016764;28;20366;-86
2022/04/21 10:29:22;;;;;;;8.40;2.20;;;;;;;;;;4999923;28;20499;-86
2022/04/21 10:31:59;;;;;;;4.93;1.85;;;;;;;;;;5024064;28;20489;-87
2022/04/21 10:34:37;;;;;;;2.42;1.33;;;;;;;;;;5016539;28;20537;-85
2022/04/21 10:37:06;;;;;;;7.80;1.80;;;;;;;;;;5018609;28;20024;-87
2022/04/21 10:39:32;;;;;;;3.10;1.52;;;;;;;;;;5016757;28;20021;-85
2022/04/21 10:42:16;;;;;;;6.47;2.22;;;;;;;;;;4991921;28;20048;-85
2022/04/21 10:44:45;;;;;;;6.45;2.13;;;;;;;;;;5023906;28;20584;-85
2022/04/21 10:47:30;;;;;;;3.85;2.13;;;;;;;;;;5022432;28;20429;-86
2022/04/21 10:49:56;;;;;;;7.28;2.05;;;;;;;;;;5021207;23;20585;-70
2022/04/21 10:57:48;;;;;;;4.70;1.90;;;;;;;;;;5030834;28;20103;-69
2022/04/21 11:00:33;;;;;;;7.07;2.20;;;;;;;;;;5031002;28;20045;-69
2022/04/21 11:03:04;;;;;;;6.40;2.40;;;;;;;;;;5029636;28;20045;-69
2022/04/21 11:05:33;;;;;;;4.65;2.10;;;;;;;;;;5031622;28;20063;-69
2022/04/21 11:07:59;;;;;;;9.07;2.17;;;;;;;;;;5032311;28;20060;-68
2022/04/21 11:10:28;;;;;;;7.47;2.13;;;;;;;;;;5041152;28;20045;-69
2022/04/21 11:12:53;;;;;;;7.00;2.30;;;;;;;;;;5030046;28;20028;-69
2022/04/21 11:15:39;;;;;;;6.18;2.10;;;;;;;;;;5035053;28;20017;-69
2022/04/21 11:18:12;;;;;;;9.45;1.98;;;;;;;;;;5008459;28;20069;-70
2022/04/21 11:20:38;;;;;;;6.38;1.98;;;;;;;;;;5030237;28;20023;-69
2022/04/21 11:23:03;;;;;;;5.18;2.15;;;;;;;;;;5029754;28;20026;-70
2022/04/21 11:25:32;;;;;;;5.37;1.83;;;;;;;;;;5031975;28;20109;-70
2022/04/21 11:27:59;;;;;;;7.05;2.25;;;;;;;;;;5023913;28;20842;-73
2022/04/21 11:30:24;;;;;;;7.07;2.53;;;;;;;;;;5028980;28;20926;-73
2022/04/21 11:32:53;;;;;;;9.55;1.98;;;;;;;;;;5012420;28;20489;-69
2022/04/21 11:35:22;;;;;;;3.33;1.80;;;;;;;;;;5026531;28;20025;-71
2022/04/21 11:37:47;;;;;;;3.05;2.13;;;;;;;;;;5026681;28;20021;-69
2022/04/21 11:40:23;;;;;;;5.60;2.42;;;;;;;;;;5033115;28;20033;-70
2022/04/21 11:42:52;;;;;;;5.97;2.25;;;;;;;;;;5033203;28;21722;-70
2022/04/21 11:45:20;;;;;;;11.65;2.47;;;;;;;;;;5034256;28;20017;-69
2022/04/21 11:47:46;;;;;;;7.97;2.78;;;;;;;;;;5028235;28;20029;-70
2022/04/21 11:50:13;;;;;;;9.20;2.83;;;;;;;;;;5029854;28;20108;-69
2022/04/21 11:52:41;;;;;;;7.93;2.28;;;;;;;;;;5026455;28;20044;-71
2022/04/21 11:55:06;;;;;;;9.15;2.58;;;;;;;;;;5029813;28;20021;-70
2022/04/21 11:57:38;;;;;;;11.48;2.95;;;;;;;;;;5034184;28;20034;-69
2022/04/21 12:00:03;;;;;;;7.50;2.50;;;;;;;;;;5037514;28;20021;-70
2022/04/21 12:07:56;;;;;;;6.43;1.85;;;;;;;;;;5034531;28;20024;-68
2022/04/21 12:10:22;;;;;;;4.87;1.63;;;;;;;;;;5030208;28;20029;-68
2022/04/21 12:12:47;;;;;;;8.00;2.30;;;;;;;;;;5019651;28;20336;-68
2022/04/21 12:15:12;;;;;;;3.80;1.90;;;;;;;;;;5030070;28;20021;-68
2022/04/21 12:17:37;;;;;;;4.95;1.90;;;;;;;;;;5032611;28;20272;-68
2022/04/21 12:20:03;;;;;;;5.90;1.90;;;;;;;;;;5033649;28;20100;-68
2022/04/21 12:22:34;;;;;;;4.00;1.45;;;;;;;;;;5029330;28;20023;-68
2022/04/21 12:24:59;;;;;;;4.20;1.75;;;;;;;;;;5037735;28;20123;-68
2022/04/21 12:27:26;;;;;;;2.30;1.33;;;;;;;;;;5019556;28;20025;-69
2022/04/21 12:30:03;;;;;;;4.78;1.55;;;;;;;;;;5035078;28;20298;-69
2022/04/21 12:32:30;;;;;;;4.72;1.50;;;;;;;;;;5022027;28;20107;-68
2022/04/21 12:34:56;;;;;;;6.25;1.88;;;;;;;;;;5028044;28;20040;-68
2022/04/21 12:37:28;;;;;;;9.98;1.58;;;;;;;;;;5030429;28;20411;-68
2022/04/21 12:39:54;;;;;;;7.97;1.73;;;;;;;;;;5035381;28;20037;-68
2022/04/21 12:42:20;;;;;;;2.90;1.60;;;;;;;;;;5028895;28;20036;-68
2022/04/21 12:44:45;;;;;;;4.70;1.63;;;;;;;;;;5033976;28;20013;-68
2022/04/21 12:47:15;;;;;;;9.50;1.73;;;;;;;;;;5032182;28;20389;-68
2022/04/21 12:49:53;;;;;;;3.33;1.58;;;;;;;;;;5026681;28;20052;-68
2022/04/21 12:52:27;;;;;;;3.85;1.60;;;;;;;;;;5029248;28;20063;-68
2022/04/21 12:54:52;;;;;;;5.28;2.10;;;;;;;;;;5031835;28;20549;-68
2022/04/21 12:57:17;;;;;;;3.97;2.30;;;;;;;;;;5027869;28;20096;-69
2022/04/21 12:59:44;;;;;;;5.15;2.35;;;;;;;;;;5019235;28;20280;-69
2022/04/21 13:02:09;;;;;;;5.78;1.98;;;;;;;;;;5032493;28;20037;-69
2022/04/21 13:04:34;;;;;;;9.20;2.90;;;;;;;;;;5033502;28;20021;-69
2022/04/21 13:07:00;;;;;;;6.17;2.90;;;;;;;;;;5033140;28;20462;-69
2022/04/21 13:09:25;;;;;;;9.27;2.42;;;;;;;;;;5025275;28;20335;-69
2022/04/21 13:11:50;;;;;;;8.80;2.60;;;;;;;;;;5035386;28;20083;-69
2022/04/21 13:14:15;;;;;;;9.10;2.65;;;;;;;;;;5034988;28;20268;-69
2022/04/21 13:16:40;;;;;;;8.23;2.97;;;;;;;;;;5027462;28;20025;-69
2022/04/21 13:19:06;;;;;;;14.80;2.83;;;;;;;;;;5033053;28;20290;-69
2022/04/21 13:24:15;;;;;;;10.70;2.80;;;;;;;;;;5027555;28;20080;-69
2022/04/21 13:26:40;;;;;;;9.03;2.67;;;;;;;;;;5028620;28;20025;-69
2022/04/21 13:29:06;;;;;;;5.83;1.10;;;;;;;;;;5029660;28;20037;-68
2022/04/21 13:34:15;;;;;;;3.78;1.50;;;;;;;;;;5027621;28;20467;-68
2022/04/21 13:36:40;;;;;;;2.50;1.45;;;;;;;;;;5026905;28;20017;-69
2022/04/21 13:39:05;;;;;;;10.63;2.10;;;;;;;;;;5026627;28;20025;-69
2022/04/21 13:41:31;;;;;;;4.93;1.95;;;;;;;;;;5029750;28;21636;-70
2022/04/21 13:43:56;;;;;;;7.95;1.73;;;;;;;;;;5027183;28;20026;-70
2022/04/21 13:46:21;;;;;;;3.00;1.90;;;;;;;;;;5027163;28;20059;-68
2022/04/21 13:48:46;;;;;;;5.43;2.37;;;;;;;;;;5030044;28;20264;-68
2022/04/21 13:51:11;;;;;;;6.50;1.70;;;;;;;;;;5029837;28;20276;-68
2022/04/21 13:53:37;;;;;;;6.33;1.57;;;;;;;;;;5036395;28;20330;-68
2022/04/21 13:56:06;;;;;;;2.55;1.75;;;;;;;;;;5036256;28;20289;-70
2022/04/21 13:58:31;;;;;;;9.40;2.20;;;;;;;;;;5028205;28;20035;-70
2022/04/21 14:00:56;;;;;;;12.00;2.67;;;;;;;;;;5031023;28;20286;-70
2022/04/21 14:03:23;;;;;;;9.60;2.55;;;;;;;;;;5033698;28;20466;-70
2022/04/21 14:05:48;;;;;;;3.60;1.85;;;;;;;;;;5025400;28;20021;-70
2022/04/21 14:08:13;;;;;;;5.47;1.92;;;;;;;;;;5029652;28;20144;-70
2022/04/21 14:10:38;;;;;;;4.97;1.67;;;;;;;;;;5028060;28;20104;-69
2022/04/21 14:13:04;;;;;;;2.50;1.65;;;;;;;;;;5036441;28;20025;-70
2022/04/21 14:15:29;;;;;;;10.52;1.77;;;;;;;;;;5034992;28;20029;-69
2022/04/21 14:17:54;;;;;;;5.30;1.63;;;;;;;;;;5031647;28;20056;-70
2022/04/21 14:20:20;;;;;;;5.20;1.90;;;;;;;;;;5032364;28;20452;-69
2022/04/21 14:22:45;;;;;;;5.93;2.03;;;;;;;;;;5036855;28;20032;-70
2022/04/21 14:25:10;;;;;;;4.93;1.80;;;;;;;;;;5029057;28;20370;-71
2022/04/21 14:27:35;;;;;;;3.73;2.00;;;;;;;;;;5030472;28;20018;-69
2022/04/21 14:30:01;;;;;;;3.20;1.33;;;;;;;;;;5031398;28;20092;-70
2022/04/21 14:32:27;;;;;;;4.85;2.30;;;;;;;;;;5035094;28;20060;-67
2022/04/21 14:34:52;;;;;;;6.90;1.93;;;;;;;;;;5030466;28;20048;-70
2022/04/21 14:44:04;;;;;;;4.68;1.65;;;;;;;;;;5040395;28;20350;-70
2022/04/21 14:45:31;;;;;;;8.40;2.53;;;;;;;;;;5036963;28;20159;-70
2022/04/21 14:47:56;;;;;;;7.77;3.00;;;;;;;;;;5034879;28;20414;-70
2022/04/21 14:50:21;;;;;;;6.77;2.40;;;;;;;;;;5033034;28;20287;-70
2022/04/21 14:52:46;;;;;;;7.18;2.67;;;;;;;;;;5030066;28;20326;-70
2022/04/21 14:55:12;;;;;;;8.13;3.00;;;;;;;;;;5037051;28;20100;-70
2022/04/21 14:57:37;;;;;;;6.33;2.13;;;;;;;;;;5035078;28;20292;-70
2022/04/21 15:00:05;;;;;;;3.90;2.03;;;;;;;;;;5031119;28;20100;-70
2022/04/21 15:02:30;;;;;;;9.13;2.40;;;;;;;;;;5030275;28;20367;-70
2022/04/21 15:04:56;;;;;;;4.55;2.08;;;;;;;;;;5032817;28;20032;-70
2022/04/21 15:07:21;;;;;;;18.33;2.30;;;;;;;;;;5035228;28;20017;-70
2022/04/21 15:09:46;;;;;;;5.65;2.10;;;;;;;;;;5030440;28;20025;-70
2022/04/21 15:12:12;;;;;;;6.35;2.67;;;;;;;;;;5028828;28;20071;-70
2022/04/21 15:14:38;;;;;;;5.28;2.60;;;;;;;;;;5037198;28;20025;-70
2022/04/21 15:17:04;;;;;;;11.93;3.25;;;;;;;;;;5034115;28;20024;-70
2022/04/21 15:19:29;;;;;;;6.45;2.90;;;;;;;;;;5039420;28;20021;-70
2022/04/21 15:21:54;;;;;;;17.60;3.40;;;;;;;;;;5029309;28;20540;-70
2022/04/21 15:24:19;;;;;;;14.80;4.47;;;;;;;;;;5032557;28;20276;-69
2022/04/21 15:26:44;;;;;;;11.43;4.37;;;;;;;;;;5027793;28;20373;-70
2022/04/21 15:29:10;;;;;;;14.30;4.60;;;;;;;;;;5029145;28;20112;-69
2022/04/21 15:31:35;;;;;;;15.23;4.90;;;;;;;;;;5029195;28;20385;-70
2022/04/21 15:34:00;;;;;;;11.70;4.25;;;;;;;;;;5028361;28;20462;-70
2022/04/21 15:36:25;;;;;;;6.40;4.13;;;;;;;;;;5037085;28;20392;-70
2022/04/21 15:38:50;;;;;;;8.18;3.85;;;;;;;;;;5035195;28;20014;-69
2022/04/21 15:41:16;;;;;;;6.30;3.40;;;;;;;;;;5029002;28;20014;-69
2022/04/21 15:43:41;;;;;;;12.68;4.55;;;;;;;;;;5031253;28;20676;-69
2022/04/21 15:46:07;;;;;;;7.28;3.97;;;;;;;;;;5032817;28;20068;-69
2022/04/21 15:48:32;;;;;;;6.68;3.45;;;;;;;;;;5030474;28;20466;-70
2022/04/21 15:50:58;;;;;;;7.10;3.40;;;;;;;;;;5026123;28;20072;-71
2022/04/21 15:58:55;;;;;;;13.07;3.80;;;;;;;;;;5028039;28;20392;-70
2022/04/21 16:01:22;;;;;;;11.10;2.53;;;;;;;;;;5027738;28;20022;-70
2022/04/21 16:03:47;;;;;;;14.77;2.83;;;;;;;;;;5031793;28;20076;-70
2022/04/21 16:06:13;;;;;;;7.10;2.60;;;;;;;;;;5037126;28;20029;-70
2022/04/21 16:08:38;;;;;;;5.32;2.97;;;;;;;;;;5038375;28;20378;-70
2022/04/21 16:11:03;;;;;;;7.88;3.30;;;;;;;;;;5039167;28;20018;-70
2022/04/21 16:13:29;;;;;;;14.65;3.22;;;;;;;;;;5038915;28;20029;-71
2022/04/21 16:15:54;;;;;;;5.80;3.50;;;;;;;;;;5033456;28;20072;-70
2022/04/21 16:18:19;;;;;;;12.53;2.97;;;;;;;;;;5033975;28;20811;-69
2022/04/21 16:20:45;;;;;;;6.13;2.97;;;;;;;;;;5019601;28;20268;-70
2022/04/21 16:23:10;;;;;;;4.78;2.95;;;;;;;;;;5019988;28;20052;-70